Terminal Aerodrome Forecast
Issued by NWS Oklahoma City, OK

Home | Current Version | Previous Version | Text Only | Print | Product List | Glossary On
Versions: 1 2 3 4 5 6 7 8 9 10 11 12 13 14 15
000
FTUS44 KOUN 282322
TAFOUN
TAF
KOUN 282322Z 2900/2924 10012KT P6SM SCT050 BKN250
     FM290600 09012KT P6SM BKN050
     FM290800 09012KT 4SM -TSRA BR OVC040CB
     FM291200 09010KT 5SM -TSRA BR OVC012CB
     FM291900 12014KT P6SM BKN025
      TEMPO 2921/2924 2SM TSRA BKN008 OVC025CB=

USA.gov is the U.S. government's official web portal to all federal, state and local government web resources and services.